sensor_id;sensor_type;location;lat;lon;timestamp;P1;durP1;ratioP1;P2;durP2;ratioP2
24273;SDS011;12392;42.678;23.380;2023-07-13T00:01:11;8.23;;;4.00;;
24273;SDS011;12392;42.678;23.380;2023-07-13T00:03:37;7.47;;;3.85;;
24273;SDS011;12392;42.678;23.380;2023-07-13T00:06:06;8.10;;;4.50;;
24273;SDS011;12392;42.678;23.380;2023-07-13T00:08:32;5.45;;;4.13;;
24273;SDS011;12392;42.678;23.380;2023-07-13T00:11:02;7.65;;;4.05;;
24273;SDS011;12392;42.678;23.380;2023-07-13T00:13:28;5.03;;;4.25;;
24273;SDS011;12392;42.678;23.380;2023-07-13T00:15:56;5.90;;;4.25;;
24273;SDS011;12392;42.678;23.380;2023-07-13T00:18:22;5.90;;;3.88;;
24273;SDS011;12392;42.678;23.380;2023-07-13T00:20:48;8.13;;;4.40;;
24273;SDS011;12392;42.678;23.380;2023-07-13T00:23:14;8.30;;;4.57;;
24273;SDS011;12392;42.678;23.380;2023-07-13T00:25:40;8.20;;;4.10;;
24273;SDS011;12392;42.678;23.380;2023-07-13T00:28:05;8.10;;;4.35;;
24273;SDS011;12392;42.678;23.380;2023-07-13T00:30:31;7.65;;;4.10;;
24273;SDS011;12392;42.678;23.380;2023-07-13T00:32:57;10.38;;;5.32;;
24273;SDS011;12392;42.678;23.380;2023-07-13T00:35:23;8.25;;;4.55;;
24273;SDS011;12392;42.678;23.380;2023-07-13T00:37:48;10.98;;;5.07;;
24273;SDS011;12392;42.678;23.380;2023-07-13T00:40:15;11.98;;;4.60;;
24273;SDS011;12392;42.678;23.380;2023-07-13T00:42:41;7.68;;;4.50;;
24273;SDS011;12392;42.678;23.380;2023-07-13T00:46:12;7.45;;;4.60;;
24273;SDS011;12392;42.678;23.380;2023-07-13T00:47:54;6.47;;;4.25;;
24273;SDS011;12392;42.678;23.380;2023-07-13T00:50:21;8.25;;;4.82;;
24273;SDS011;12392;42.678;23.380;2023-07-13T00:52:49;7.80;;;4.18;;
24273;SDS011;12392;42.678;23.380;2023-07-13T00:55:18;7.55;;;4.47;;
24273;SDS011;12392;42.678;23.380;2023-07-13T00:57:44;9.50;;;4.88;;
24273;SDS011;12392;42.678;23.380;2023-07-13T01:00:10;7.75;;;4.80;;
24273;SDS011;12392;42.678;23.380;2023-07-13T01:02:42;6.78;;;4.60;;
24273;SDS011;12392;42.678;23.380;2023-07-13T01:05:12;7.43;;;4.55;;
24273;SDS011;12392;42.678;23.380;2023-07-13T01:07:39;9.88;;;5.00;;
24273;SDS011;12392;42.678;23.380;2023-07-13T01:10:06;9.23;;;4.45;;
24273;SDS011;12392;42.678;23.380;2023-07-13T01:12:32;8.40;;;4.70;;
24273;SDS011;12392;42.678;23.380;2023-07-13T01:14:58;9.07;;;4.88;;
24273;SDS011;12392;42.678;23.380;2023-07-13T01:17:25;7.50;;;4.78;;
24273;SDS011;12392;42.678;23.380;2023-07-13T01:19:52;11.50;;;4.55;;
24273;SDS011;12392;42.678;23.380;2023-07-13T01:22:18;8.40;;;5.50;;
24273;SDS011;12392;42.678;23.380;2023-07-13T01:24:45;7.68;;;4.40;;
24273;SDS011;12392;42.678;23.380;2023-07-13T01:27:12;6.95;;;4.65;;
24273;SDS011;12392;42.678;23.380;2023-07-13T01:29:40;8.90;;;5.13;;
24273;SDS011;12392;42.678;23.380;2023-07-13T01:32:12;6.38;;;4.60;;
24273;SDS011;12392;42.678;23.380;2023-07-13T01:34:39;9.68;;;4.82;;
24273;SDS011;12392;42.678;23.380;2023-07-13T01:37:07;6.45;;;4.45;;
24273;SDS011;12392;42.678;23.380;2023-07-13T01:39:34;7.38;;;4.75;;
24273;SDS011;12392;42.678;23.380;2023-07-13T01:42:00;9.75;;;5.10;;
24273;SDS011;12392;42.678;23.380;2023-07-13T01:44:26;7.38;;;5.32;;
24273;SDS011;12392;42.678;23.380;2023-07-13T01:46:53;8.95;;;4.53;;
24273;SDS011;12392;42.678;23.380;2023-07-13T01:49:19;10.90;;;4.47;;
24273;SDS011;12392;42.678;23.380;2023-07-13T01:51:44;6.55;;;4.40;;
24273;SDS011;12392;42.678;23.380;2023-07-13T01:54:10;8.00;;;4.72;;
24273;SDS011;12392;42.678;23.380;2023-07-13T01:56:36;8.52;;;4.70;;
24273;SDS011;12392;42.678;23.380;2023-07-13T01:59:02;7.63;;;4.72;;
24273;SDS011;12392;42.678;23.380;2023-07-13T02:01:27;9.55;;;4.35;;
24273;SDS011;12392;42.678;23.380;2023-07-13T02:03:53;7.28;;;4.45;;
24273;SDS011;12392;42.678;23.380;2023-07-13T02:06:19;6.40;;;5.15;;
24273;SDS011;12392;42.678;23.380;2023-07-13T02:08:44;7.00;;;4.35;;
24273;SDS011;12392;42.678;23.380;2023-07-13T02:11:10;6.90;;;4.70;;
24273;SDS011;12392;42.678;23.380;2023-07-13T02:13:36;6.70;;;4.50;;
24273;SDS011;12392;42.678;23.380;2023-07-13T02:16:02;7.32;;;4.63;;
24273;SDS011;12392;42.678;23.380;2023-07-13T02:18:28;8.48;;;5.07;;
24273;SDS011;12392;42.678;23.380;2023-07-13T02:20:54;10.13;;;4.93;;
24273;SDS011;12392;42.678;23.380;2023-07-13T02:23:19;7.80;;;5.65;;
24273;SDS011;12392;42.678;23.380;2023-07-13T02:25:45;5.13;;;4.53;;
24273;SDS011;12392;42.678;23.380;2023-07-13T02:28:11;7.20;;;4.68;;
24273;SDS011;12392;42.678;23.380;2023-07-13T02:30:37;7.03;;;4.70;;
24273;SDS011;12392;42.678;23.380;2023-07-13T02:33:03;6.93;;;5.25;;
24273;SDS011;12392;42.678;23.380;2023-07-13T02:35:29;9.10;;;5.10;;
24273;SDS011;12392;42.678;23.380;2023-07-13T02:37:55;9.63;;;5.20;;
24273;SDS011;12392;42.678;23.380;2023-07-13T02:40:21;9.18;;;5.57;;
24273;SDS011;12392;42.678;23.380;2023-07-13T02:42:47;10.43;;;4.80;;
24273;SDS011;12392;42.678;23.380;2023-07-13T02:45:13;13.93;;;5.25;;
24273;SDS011;12392;42.678;23.380;2023-07-13T02:47:39;10.50;;;5.68;;
24273;SDS011;12392;42.678;23.380;2023-07-13T02:50:06;8.55;;;5.40;;
24273;SDS011;12392;42.678;23.380;2023-07-13T02:52:32;13.75;;;5.40;;
24273;SDS011;12392;42.678;23.380;2023-07-13T02:54:57;12.20;;;5.20;;
24273;SDS011;12392;42.678;23.380;2023-07-13T02:57:23;11.05;;;5.95;;
24273;SDS011;12392;42.678;23.380;2023-07-13T02:59:49;13.75;;;7.80;;
24273;SDS011;12392;42.678;23.380;2023-07-13T03:02:15;11.32;;;7.20;;
24273;SDS011;12392;42.678;23.380;2023-07-13T03:04:40;11.02;;;7.47;;
24273;SDS011;12392;42.678;23.380;2023-07-13T03:07:06;12.95;;;8.32;;
24273;SDS011;12392;42.678;23.380;2023-07-13T03:09:33;10.63;;;7.65;;
24273;SDS011;12392;42.678;23.380;2023-07-13T03:11:59;15.10;;;7.40;;
24273;SDS011;12392;42.678;23.380;2023-07-13T03:14:24;13.63;;;7.80;;
24273;SDS011;12392;42.678;23.380;2023-07-13T03:16:50;15.38;;;7.88;;
24273;SDS011;12392;42.678;23.380;2023-07-13T03:19:17;12.65;;;7.20;;
24273;SDS011;12392;42.678;23.380;2023-07-13T03:21:43;13.75;;;7.18;;
24273;SDS011;12392;42.678;23.380;2023-07-13T03:24:09;9.63;;;7.15;;
24273;SDS011;12392;42.678;23.380;2023-07-13T03:26:34;10.68;;;6.93;;
24273;SDS011;12392;42.678;23.380;2023-07-13T03:29:00;11.32;;;7.30;;
24273;SDS011;12392;42.678;23.380;2023-07-13T03:31:27;11.18;;;7.65;;
24273;SDS011;12392;42.678;23.380;2023-07-13T03:33:54;10.25;;;6.63;;
24273;SDS011;12392;42.678;23.380;2023-07-13T03:36:21;14.90;;;7.20;;
24273;SDS011;12392;42.678;23.380;2023-07-13T03:38:52;14.90;;;7.97;;
24273;SDS011;12392;42.678;23.380;2023-07-13T03:41:21;17.30;;;8.02;;
24273;SDS011;12392;42.678;23.380;2023-07-13T03:43:47;13.75;;;7.43;;
24273;SDS011;12392;42.678;23.380;2023-07-13T03:46:13;15.20;;;8.57;;
24273;SDS011;12392;42.678;23.380;2023-07-13T03:48:40;12.55;;;8.48;;
24273;SDS011;12392;42.678;23.380;2023-07-13T03:51:08;21.17;;;7.85;;
24273;SDS011;12392;42.678;23.380;2023-07-13T03:53:37;14.68;;;7.88;;
24273;SDS011;12392;42.678;23.380;2023-07-13T03:56:03;18.77;;;8.25;;
24273;SDS011;12392;42.678;23.380;2023-07-13T03:58:30;13.88;;;8.23;;
24273;SDS011;12392;42.678;23.380;2023-07-13T04:00:58;14.82;;;7.80;;
24273;SDS011;12392;42.678;23.380;2023-07-13T04:03:24;15.93;;;7.72;;
24273;SDS011;12392;42.678;23.380;2023-07-13T04:05:50;21.98;;;8.35;;
24273;SDS011;12392;42.678;23.380;2023-07-13T04:08:16;13.05;;;8.20;;
24273;SDS011;12392;42.678;23.380;2023-07-13T04:10:42;22.20;;;8.93;;
24273;SDS011;12392;42.678;23.380;2023-07-13T04:13:08;13.95;;;9.25;;
24273;SDS011;12392;42.678;23.380;2023-07-13T04:15:34;19.73;;;9.35;;
24273;SDS011;12392;42.678;23.380;2023-07-13T04:17:59;13.50;;;9.40;;
24273;SDS011;12392;42.678;23.380;2023-07-13T04:20:25;16.50;;;9.95;;
24273;SDS011;12392;42.678;23.380;2023-07-13T04:22:51;23.13;;;10.20;;
24273;SDS011;12392;42.678;23.380;2023-07-13T04:25:21;22.52;;;11.20;;
24273;SDS011;12392;42.678;23.380;2023-07-13T04:27:46;21.73;;;12.02;;
24273;SDS011;12392;42.678;23.380;2023-07-13T04:30:12;16.70;;;10.95;;
24273;SDS011;12392;42.678;23.380;2023-07-13T04:32:38;18.02;;;9.93;;
24273;SDS011;12392;42.678;23.380;2023-07-13T04:35:04;12.90;;;9.90;;
24273;SDS011;12392;42.678;23.380;2023-07-13T04:37:30;15.05;;;9.18;;
24273;SDS011;12392;42.678;23.380;2023-07-13T04:39:55;18.45;;;10.00;;
24273;SDS011;12392;42.678;23.380;2023-07-13T04:42:21;17.83;;;9.70;;
24273;SDS011;12392;42.678;23.380;2023-07-13T04:44:50;18.88;;;9.88;;
24273;SDS011;12392;42.678;23.380;2023-07-13T04:47:17;12.63;;;9.15;;
24273;SDS011;12392;42.678;23.380;2023-07-13T04:49:43;16.65;;;8.75;;
24273;SDS011;12392;42.678;23.380;2023-07-13T04:52:10;13.50;;;8.80;;
24273;SDS011;12392;42.678;23.380;2023-07-13T04:54:36;12.88;;;8.27;;
24273;SDS011;12392;42.678;23.380;2023-07-13T04:57:02;11.88;;;8.57;;
24273;SDS011;12392;42.678;23.380;2023-07-13T04:59:31;15.52;;;8.02;;
24273;SDS011;12392;42.678;23.380;2023-07-13T05:01:57;15.23;;;7.88;;
24273;SDS011;12392;42.678;23.380;2023-07-13T05:04:23;12.38;;;7.38;;
24273;SDS011;12392;42.678;23.380;2023-07-13T05:06:49;11.93;;;7.57;;
24273;SDS011;12392;42.678;23.380;2023-07-13T05:09:14;16.23;;;9.00;;
24273;SDS011;12392;42.678;23.380;2023-07-13T05:11:40;10.70;;;7.93;;
24273;SDS011;12392;42.678;23.380;2023-07-13T05:14:06;15.88;;;7.93;;
24273;SDS011;12392;42.678;23.380;2023-07-13T05:16:31;16.23;;;8.15;;
24273;SDS011;12392;42.678;23.380;2023-07-13T05:18:57;15.35;;;7.68;;
24273;SDS011;12392;42.678;23.380;2023-07-13T05:21:23;13.07;;;8.02;;
24273;SDS011;12392;42.678;23.380;2023-07-13T05:23:49;18.77;;;7.72;;
24273;SDS011;12392;42.678;23.380;2023-07-13T05:26:15;16.40;;;8.43;;
24273;SDS011;12392;42.678;23.380;2023-07-13T05:28:41;16.13;;;8.52;;
24273;SDS011;12392;42.678;23.380;2023-07-13T05:31:08;13.82;;;8.27;;
24273;SDS011;12392;42.678;23.380;2023-07-13T05:33:34;13.35;;;8.68;;
24273;SDS011;12392;42.678;23.380;2023-07-13T05:36:00;12.88;;;7.97;;
24273;SDS011;12392;42.678;23.380;2023-07-13T05:38:26;13.75;;;8.18;;
24273;SDS011;12392;42.678;23.380;2023-07-13T05:40:53;16.58;;;9.00;;
24273;SDS011;12392;42.678;23.380;2023-07-13T05:43:21;14.20;;;9.25;;
24273;SDS011;12392;42.678;23.380;2023-07-13T05:45:47;12.80;;;8.45;;
24273;SDS011;12392;42.678;23.380;2023-07-13T05:48:13;17.98;;;8.00;;
24273;SDS011;12392;42.678;23.380;2023-07-13T05:50:39;16.42;;;8.40;;
24273;SDS011;12392;42.678;23.380;2023-07-13T05:53:05;13.05;;;7.75;;
24273;SDS011;12392;42.678;23.380;2023-07-13T05:55:31;17.02;;;8.48;;
24273;SDS011;12392;42.678;23.380;2023-07-13T05:57:57;12.15;;;8.73;;
24273;SDS011;12392;42.678;23.380;2023-07-13T06:00:24;16.52;;;7.30;;
24273;SDS011;12392;42.678;23.380;2023-07-13T06:02:50;14.68;;;7.78;;
24273;SDS011;12392;42.678;23.380;2023-07-13T06:05:16;15.48;;;8.00;;
24273;SDS011;12392;42.678;23.380;2023-07-13T06:07:41;14.07;;;7.88;;
24273;SDS011;12392;42.678;23.380;2023-07-13T06:10:07;14.50;;;8.52;;
24273;SDS011;12392;42.678;23.380;2023-07-13T06:12:33;17.00;;;7.90;;
24273;SDS011;12392;42.678;23.380;2023-07-13T06:14:59;17.38;;;7.97;;
24273;SDS011;12392;42.678;23.380;2023-07-13T06:17:24;15.15;;;7.63;;
24273;SDS011;12392;42.678;23.380;2023-07-13T06:19:50;18.80;;;8.13;;
24273;SDS011;12392;42.678;23.380;2023-07-13T06:22:16;15.57;;;8.60;;
24273;SDS011;12392;42.678;23.380;2023-07-13T06:24:41;14.23;;;7.15;;
24273;SDS011;12392;42.678;23.380;2023-07-13T06:27:07;14.10;;;7.93;;
24273;SDS011;12392;42.678;23.380;2023-07-13T06:29:33;17.80;;;7.90;;
24273;SDS011;12392;42.678;23.380;2023-07-13T06:31:58;11.13;;;8.00;;
24273;SDS011;12392;42.678;23.380;2023-07-13T06:34:24;19.98;;;7.40;;
24273;SDS011;12392;42.678;23.380;2023-07-13T06:36:50;12.90;;;7.95;;
24273;SDS011;12392;42.678;23.380;2023-07-13T06:39:15;14.38;;;8.25;;
24273;SDS011;12392;42.678;23.380;2023-07-13T06:41:41;17.40;;;6.95;;
24273;SDS011;12392;42.678;23.380;2023-07-13T06:44:07;10.88;;;7.90;;
24273;SDS011;12392;42.678;23.380;2023-07-13T06:46:32;13.05;;;7.05;;
24273;SDS011;12392;42.678;23.380;2023-07-13T06:48:58;20.05;;;8.02;;
24273;SDS011;12392;42.678;23.380;2023-07-13T06:51:23;15.88;;;8.20;;
24273;SDS011;12392;42.678;23.380;2023-07-13T06:53:50;15.10;;;7.72;;
24273;SDS011;12392;42.678;23.380;2023-07-13T06:56:16;14.45;;;9.18;;
24273;SDS011;12392;42.678;23.380;2023-07-13T06:58:42;13.88;;;8.05;;
24273;SDS011;12392;42.678;23.380;2023-07-13T07:01:08;20.52;;;8.50;;
24273;SDS011;12392;42.678;23.380;2023-07-13T07:03:33;12.23;;;8.40;;
24273;SDS011;12392;42.678;23.380;2023-07-13T07:06:00;15.27;;;8.35;;
24273;SDS011;12392;42.678;23.380;2023-07-13T07:08:48;16.13;;;8.38;;
24273;SDS011;12392;42.678;23.380;2023-07-13T07:11:17;11.10;;;7.85;;
24273;SDS011;12392;42.678;23.380;2023-07-13T07:13:47;15.50;;;8.32;;
24273;SDS011;12392;42.678;23.380;2023-07-13T07:16:14;16.23;;;8.07;;
24273;SDS011;12392;42.678;23.380;2023-07-13T07:18:40;17.60;;;8.07;;
24273;SDS011;12392;42.678;23.380;2023-07-13T07:21:05;16.85;;;8.10;;
24273;SDS011;12392;42.678;23.380;2023-07-13T07:23:31;11.27;;;7.70;;
24273;SDS011;12392;42.678;23.380;2023-07-13T07:25:57;11.38;;;7.72;;
24273;SDS011;12392;42.678;23.380;2023-07-13T07:28:23;15.95;;;8.95;;
24273;SDS011;12392;42.678;23.380;2023-07-13T07:30:49;10.63;;;7.93;;
24273;SDS011;12392;42.678;23.380;2023-07-13T07:33:18;12.75;;;8.15;;
24273;SDS011;12392;42.678;23.380;2023-07-13T07:35:44;10.38;;;8.30;;
24273;SDS011;12392;42.678;23.380;2023-07-13T07:38:09;14.13;;;7.90;;
24273;SDS011;12392;42.678;23.380;2023-07-13T07:40:39;13.88;;;8.18;;
24273;SDS011;12392;42.678;23.380;2023-07-13T07:43:06;16.65;;;7.93;;
24273;SDS011;12392;42.678;23.380;2023-07-13T07:45:32;16.80;;;8.05;;
24273;SDS011;12392;42.678;23.380;2023-07-13T07:47:58;20.80;;;8.48;;
24273;SDS011;12392;42.678;23.380;2023-07-13T07:50:27;18.35;;;8.95;;
24273;SDS011;12392;42.678;23.380;2023-07-13T07:52:53;16.25;;;8.35;;
24273;SDS011;12392;42.678;23.380;2023-07-13T07:55:20;14.63;;;8.43;;
24273;SDS011;12392;42.678;23.380;2023-07-13T07:57:47;17.00;;;7.95;;
24273;SDS011;12392;42.678;23.380;2023-07-13T08:00:13;20.05;;;8.35;;
24273;SDS011;12392;42.678;23.380;2023-07-13T08:02:39;16.48;;;8.55;;
24273;SDS011;12392;42.678;23.380;2023-07-13T08:05:06;26.00;;;9.52;;
24273;SDS011;12392;42.678;23.380;2023-07-13T08:07:32;24.20;;;9.35;;
24273;SDS011;12392;42.678;23.380;2023-07-13T08:09:58;23.38;;;8.90;;
24273;SDS011;12392;42.678;23.380;2023-07-13T08:12:23;16.30;;;9.05;;
24273;SDS011;12392;42.678;23.380;2023-07-13T08:14:49;17.08;;;9.10;;
24273;SDS011;12392;42.678;23.380;2023-07-13T08:17:19;14.93;;;9.00;;
24273;SDS011;12392;42.678;23.380;2023-07-13T08:19:45;13.35;;;8.27;;
24273;SDS011;12392;42.678;23.380;2023-07-13T08:22:11;19.77;;;9.18;;
24273;SDS011;12392;42.678;23.380;2023-07-13T08:24:37;15.93;;;9.30;;
24273;SDS011;12392;42.678;23.380;2023-07-13T08:27:02;15.05;;;8.60;;
24273;SDS011;12392;42.678;23.380;2023-07-13T08:29:28;20.33;;;8.65;;
24273;SDS011;12392;42.678;23.380;2023-07-13T08:31:57;19.75;;;9.00;;
24273;SDS011;12392;42.678;23.380;2023-07-13T08:34:23;21.45;;;8.63;;
24273;SDS011;12392;42.678;23.380;2023-07-13T08:36:48;12.65;;;8.68;;
24273;SDS011;12392;42.678;23.380;2023-07-13T08:39:14;22.52;;;9.70;;
24273;SDS011;12392;42.678;23.380;2023-07-13T08:41:40;18.48;;;8.55;;
24273;SDS011;12392;42.678;23.380;2023-07-13T08:44:06;18.92;;;8.60;;
24273;SDS011;12392;42.678;23.380;2023-07-13T08:46:45;14.82;;;8.63;;
24273;SDS011;12392;42.678;23.380;2023-07-13T08:49:16;16.48;;;8.32;;
24273;SDS011;12392;42.678;23.380;2023-07-13T08:56:47;27.55;;;9.70;;
24273;SDS011;12392;42.678;23.380;2023-07-13T08:59:18;20.25;;;8.98;;
24273;SDS011;12392;42.678;23.380;2023-07-13T09:05:04;16.98;;;8.68;;
24273;SDS011;12392;42.678;23.380;2023-07-13T09:07:45;25.92;;;8.80;;
24273;SDS011;12392;42.678;23.380;2023-07-13T09:13:08;20.13;;;8.63;;
24273;SDS011;12392;42.678;23.380;2023-07-13T09:15:45;15.80;;;8.70;;
24273;SDS011;12392;42.678;23.380;2023-07-13T09:18:19;22.08;;;9.60;;
24273;SDS011;12392;42.678;23.380;2023-07-13T09:20:54;15.13;;;9.18;;
24273;SDS011;12392;42.678;23.380;2023-07-13T09:23:24;15.45;;;8.57;;
24273;SDS011;12392;42.678;23.380;2023-07-13T09:25:52;14.80;;;8.63;;
24273;SDS011;12392;42.678;23.380;2023-07-13T09:28:23;15.57;;;8.70;;
24273;SDS011;12392;42.678;23.380;2023-07-13T09:31:08;16.17;;;8.80;;
24273;SDS011;12392;42.678;23.380;2023-07-13T09:33:48;21.65;;;9.23;;
24273;SDS011;12392;42.678;23.380;2023-07-13T09:38:46;20.65;;;8.98;;
24273;SDS011;12392;42.678;23.380;2023-07-13T09:44:00;21.00;;;9.35;;
24273;SDS011;12392;42.678;23.380;2023-07-13T09:46:35;23.50;;;8.98;;
24273;SDS011;12392;42.678;23.380;2023-07-13T09:49:01;12.27;;;8.65;;
24273;SDS011;12392;42.678;23.380;2023-07-13T09:51:27;19.83;;;9.10;;
24273;SDS011;12392;42.678;23.380;2023-07-13T09:53:53;25.20;;;9.75;;
24273;SDS011;12392;42.678;23.380;2023-07-13T09:56:37;25.20;;;9.65;;
24273;SDS011;12392;42.678;23.380;2023-07-13T09:59:03;25.90;;;9.73;;
24273;SDS011;12392;42.678;23.380;2023-07-13T10:01:32;18.10;;;8.80;;
24273;SDS011;12392;42.678;23.380;2023-07-13T10:04:00;23.80;;;8.65;;
24273;SDS011;12392;42.678;23.380;2023-07-13T10:06:26;18.65;;;8.38;;
24273;SDS011;12392;42.678;23.380;2023-07-13T10:08:53;20.52;;;9.40;;
24273;SDS011;12392;42.678;23.380;2023-07-13T10:11:22;13.15;;;9.10;;
24273;SDS011;12392;42.678;23.380;2023-07-13T10:13:52;21.38;;;9.00;;
24273;SDS011;12392;42.678;23.380;2023-07-13T10:16:20;18.23;;;9.02;;
24273;SDS011;12392;42.678;23.380;2023-07-13T10:18:55;20.50;;;8.60;;
24273;SDS011;12392;42.678;23.380;2023-07-13T10:21:28;21.10;;;9.23;;
24273;SDS011;12392;42.678;23.380;2023-07-13T10:24:25;18.00;;;9.18;;
24273;SDS011;12392;42.678;23.380;2023-07-13T10:27:19;16.88;;;9.55;;
24273;SDS011;12392;42.678;23.380;2023-07-13T10:32:39;26.30;;;9.52;;
24273;SDS011;12392;42.678;23.380;2023-07-13T10:35:05;20.67;;;9.68;;
24273;SDS011;12392;42.678;23.380;2023-07-13T10:37:40;16.77;;;9.27;;
24273;SDS011;12392;42.678;23.380;2023-07-13T10:40:16;20.50;;;9.52;;
24273;SDS011;12392;42.678;23.380;2023-07-13T10:42:46;15.18;;;9.10;;
24273;SDS011;12392;42.678;23.380;2023-07-13T10:45:17;19.23;;;9.50;;
24273;SDS011;12392;42.678;23.380;2023-07-13T10:47:44;17.27;;;8.93;;
24273;SDS011;12392;42.678;23.380;2023-07-13T10:50:15;21.40;;;9.93;;
24273;SDS011;12392;42.678;23.380;2023-07-13T10:52:46;15.40;;;8.43;;
24273;SDS011;12392;42.678;23.380;2023-07-13T10:58:00;19.20;;;7.40;;
24273;SDS011;12392;42.678;23.380;2023-07-13T11:03:37;8.65;;;5.80;;
24273;SDS011;12392;42.678;23.380;2023-07-13T11:08:55;18.60;;;8.55;;
24273;SDS011;12392;42.678;23.380;2023-07-13T11:23:42;12.93;;;5.78;;
24273;SDS011;12392;42.678;23.380;2023-07-13T11:31:49;12.05;;;5.05;;
24273;SDS011;12392;42.678;23.380;2023-07-13T11:34:36;12.27;;;6.15;;
24273;SDS011;12392;42.678;23.380;2023-07-13T11:37:03;10.65;;;5.97;;
24273;SDS011;12392;42.678;23.380;2023-07-13T11:39:36;8.90;;;5.45;;
24273;SDS011;12392;42.678;23.380;2023-07-13T11:42:07;10.57;;;5.72;;
24273;SDS011;12392;42.678;23.380;2023-07-13T11:44:41;13.40;;;5.95;;
24273;SDS011;12392;42.678;23.380;2023-07-13T11:47:09;14.05;;;5.82;;
24273;SDS011;12392;42.678;23.380;2023-07-13T11:49:43;15.27;;;6.78;;
24273;SDS011;12392;42.678;23.380;2023-07-13T11:52:13;11.55;;;5.45;;
24273;SDS011;12392;42.678;23.380;2023-07-13T11:54:48;12.02;;;6.18;;
24273;SDS011;12392;42.678;23.380;2023-07-13T11:59:51;10.00;;;6.00;;
24273;SDS011;12392;42.678;23.380;2023-07-13T12:02:21;18.05;;;6.47;;
24273;SDS011;12392;42.678;23.380;2023-07-13T12:04:53;16.63;;;6.03;;
24273;SDS011;12392;42.678;23.380;2023-07-13T12:07:19;12.45;;;6.53;;
24273;SDS011;12392;42.678;23.380;2023-07-13T12:09:45;13.15;;;5.50;;
24273;SDS011;12392;42.678;23.380;2023-07-13T12:12:16;13.05;;;6.32;;
24273;SDS011;12392;42.678;23.380;2023-07-13T12:14:43;16.08;;;6.25;;
24273;SDS011;12392;42.678;23.380;2023-07-13T12:17:15;8.95;;;5.90;;
24273;SDS011;12392;42.678;23.380;2023-07-13T12:19:43;11.80;;;5.68;;
24273;SDS011;12392;42.678;23.380;2023-07-13T12:22:10;17.05;;;6.30;;
24273;SDS011;12392;42.678;23.380;2023-07-13T12:24:37;13.45;;;5.82;;
24273;SDS011;12392;42.678;23.380;2023-07-13T12:27:05;8.93;;;5.75;;
24273;SDS011;12392;42.678;23.380;2023-07-13T12:29:32;11.95;;;5.88;;
24273;SDS011;12392;42.678;23.380;2023-07-13T12:31:58;20.33;;;5.70;;
24273;SDS011;12392;42.678;23.380;2023-07-13T12:34:25;10.25;;;5.70;;
24273;SDS011;12392;42.678;23.380;2023-07-13T12:36:52;14.45;;;6.07;;
24273;SDS011;12392;42.678;23.380;2023-07-13T12:39:37;12.68;;;5.80;;
24273;SDS011;12392;42.678;23.380;2023-07-13T12:42:28;13.10;;;5.63;;
24273;SDS011;12392;42.678;23.380;2023-07-13T12:44:58;13.55;;;5.25;;
24273;SDS011;12392;42.678;23.380;2023-07-13T12:47:29;12.73;;;5.90;;
24273;SDS011;12392;42.678;23.380;2023-07-13T12:49:59;13.70;;;6.18;;
24273;SDS011;12392;42.678;23.380;2023-07-13T12:54:57;19.25;;;5.60;;
24273;SDS011;12392;42.678;23.380;2023-07-13T12:57:25;14.38;;;6.22;;
24273;SDS011;12392;42.678;23.380;2023-07-13T12:59:52;16.45;;;6.70;;
24273;SDS011;12392;42.678;23.380;2023-07-13T13:02:21;15.82;;;5.75;;
24273;SDS011;12392;42.678;23.380;2023-07-13T13:04:54;12.93;;;6.00;;
24273;SDS011;12392;42.678;23.380;2023-07-13T13:07:21;19.20;;;5.80;;
24273;SDS011;12392;42.678;23.380;2023-07-13T13:09:46;14.60;;;5.85;;
24273;SDS011;12392;42.678;23.380;2023-07-13T13:12:12;11.80;;;5.63;;
24273;SDS011;12392;42.678;23.380;2023-07-13T13:14:38;12.73;;;6.35;;
24273;SDS011;12392;42.678;23.380;2023-07-13T13:17:07;12.65;;;6.90;;
24273;SDS011;12392;42.678;23.380;2023-07-13T13:19:45;21.63;;;7.38;;
24273;SDS011;12392;42.678;23.380;2023-07-13T13:22:11;15.55;;;6.32;;
24273;SDS011;12392;42.678;23.380;2023-07-13T13:24:37;11.20;;;6.70;;
24273;SDS011;12392;42.678;23.380;2023-07-13T13:27:03;14.90;;;6.82;;
24273;SDS011;12392;42.678;23.380;2023-07-13T13:29:31;22.52;;;7.60;;
24273;SDS011;12392;42.678;23.380;2023-07-13T13:31:57;17.30;;;7.63;;
24273;SDS011;12392;42.678;23.380;2023-07-13T13:34:23;17.52;;;7.93;;
24273;SDS011;12392;42.678;23.380;2023-07-13T13:36:50;13.43;;;7.47;;
24273;SDS011;12392;42.678;23.380;2023-07-13T13:39:21;16.48;;;7.55;;
24273;SDS011;12392;42.678;23.380;2023-07-13T13:41:52;15.35;;;6.55;;
24273;SDS011;12392;42.678;23.380;2023-07-13T13:44:18;13.40;;;6.85;;
24273;SDS011;12392;42.678;23.380;2023-07-13T13:46:46;15.70;;;7.10;;
24273;SDS011;12392;42.678;23.380;2023-07-13T13:49:20;13.48;;;7.05;;
24273;SDS011;12392;42.678;23.380;2023-07-13T13:51:48;15.73;;;7.43;;
24273;SDS011;12392;42.678;23.380;2023-07-13T13:54:14;18.00;;;7.70;;
24273;SDS011;12392;42.678;23.380;2023-07-13T13:56:44;15.88;;;6.72;;
24273;SDS011;12392;42.678;23.380;2023-07-13T13:59:11;17.08;;;6.93;;
24273;SDS011;12392;42.678;23.380;2023-07-13T14:01:37;12.63;;;6.45;;
24273;SDS011;12392;42.678;23.380;2023-07-13T14:04:05;14.57;;;6.47;;
24273;SDS011;12392;42.678;23.380;2023-07-13T14:06:31;15.25;;;6.78;;
24273;SDS011;12392;42.678;23.380;2023-07-13T14:08:57;19.25;;;7.32;;
24273;SDS011;12392;42.678;23.380;2023-07-13T14:11:24;15.35;;;6.70;;
24273;SDS011;12392;42.678;23.380;2023-07-13T14:13:58;18.05;;;6.80;;
24273;SDS011;12392;42.678;23.380;2023-07-13T14:16:29;12.55;;;7.28;;
24273;SDS011;12392;42.678;23.380;2023-07-13T14:18:59;16.52;;;6.82;;
24273;SDS011;12392;42.678;23.380;2023-07-13T14:21:28;17.70;;;7.05;;
24273;SDS011;12392;42.678;23.380;2023-07-13T14:23:54;20.08;;;7.30;;
24273;SDS011;12392;42.678;23.380;2023-07-13T14:26:23;15.65;;;6.88;;
24273;SDS011;12392;42.678;23.380;2023-07-13T14:28:51;14.43;;;7.40;;
24273;SDS011;12392;42.678;23.380;2023-07-13T14:31:22;20.27;;;7.15;;
24273;SDS011;12392;42.678;23.380;2023-07-13T14:33:49;20.40;;;7.40;;
24273;SDS011;12392;42.678;23.380;2023-07-13T14:36:21;18.05;;;6.90;;
24273;SDS011;12392;42.678;23.380;2023-07-13T14:38:54;12.98;;;6.97;;
24273;SDS011;12392;42.678;23.380;2023-07-13T14:41:21;13.65;;;7.47;;
24273;SDS011;12392;42.678;23.380;2023-07-13T14:43:47;15.45;;;6.88;;
24273;SDS011;12392;42.678;23.380;2023-07-13T14:46:22;15.23;;;6.97;;
24273;SDS011;12392;42.678;23.380;2023-07-13T14:48:53;25.58;;;7.18;;
24273;SDS011;12392;42.678;23.380;2023-07-13T14:51:24;26.42;;;6.93;;
24273;SDS011;12392;42.678;23.380;2023-07-13T14:53:50;16.02;;;6.90;;
24273;SDS011;12392;42.678;23.380;2023-07-13T14:56:16;18.42;;;7.00;;
24273;SDS011;12392;42.678;23.380;2023-07-13T14:58:42;16.02;;;6.60;;
24273;SDS011;12392;42.678;23.380;2023-07-13T15:01:14;13.48;;;6.32;;
24273;SDS011;12392;42.678;23.380;2023-07-13T15:03:43;15.43;;;6.00;;
24273;SDS011;12392;42.678;23.380;2023-07-13T15:06:12;11.25;;;5.22;;
24273;SDS011;12392;42.678;23.380;2023-07-13T15:08:38;12.25;;;5.38;;
24273;SDS011;12392;42.678;23.380;2023-07-13T15:11:05;12.43;;;5.35;;
24273;SDS011;12392;42.678;23.380;2023-07-13T15:13:38;16.73;;;6.15;;
24273;SDS011;12392;42.678;23.380;2023-07-13T15:16:05;11.65;;;5.78;;
24273;SDS011;12392;42.678;23.380;2023-07-13T15:18:46;14.27;;;5.80;;